Delaware, AR (72835)

12:37 PM CDT on July 05, 2015 (GMT -0500)
Mt. Nebo, AR | | Change Station
CLOSE
Current Station
Personal Weather Station
Location: Dardanelle, AR
Elevation: 1749 ft
Nearby Weather Stations
Active Advisory: Flood Advisory Active Notice: Record Report

Elev 1749 ft 35.23 °N, 93.25 °W | Updated 14 minutes ago

Partly Cloudy
Partly Cloudy
80.3 °F
Feels Like 86 °F
N
3.0
Wind Variable Wind from North

Today
High -- | Low -- °F
--% Chance of Precip.
Yesterday
High -- | Low -- °F
Precip. -- in
6:04 AM 8:31 PM
Waning Gibbous, 83% visible
Pressure 30.04 in
Visibility 10.0 miles
Clouds Few 2100 ft
Mostly Cloudy 3000 ft
Overcast 5000 ft
Heat Index 86 °F
Dew Point 76 °F
Humidity 85%
Rainfall 0.00 in
Snow Depth Not available.
UV 4 out of 12
Pollen 3.40 out of 12
Air Quality Not available.
Flu Activity Not available.
SPECI KRUE 051734Z AUTO 00000KT 10SM FEW021 BKN030 OVC050 29/23 A3004 RMK AO2 T02940233 $

More Conditions Fewer Conditions

Pressure 30.04 in
Visibility 10.0 miles
Clouds Few 2100 ft
Mostly Cloudy 3000 ft
Overcast 5000 ft
Heat Index 86 °F
Dew Point 76 °F
Humidity 85%
Rainfall 0.00 in
Snow Depth Not available.
UV 4 out of 12
Pollen 3.40 out of 12
Air Quality Not available.
Flu Activity Not available.
SPECI KRUE 051734Z AUTO 00000KT 10SM FEW021 BKN030 OVC050 29/23 A3004 RMK AO2 T02940233 $

More Conditions Fewer Conditions

10-Day Weather Forecast

×

Almanac

Astronomy

Jul. 05, 2015 Rise Set
Actual Time
Civil Twilight
Nautical Twilight
Astronomical Twilight
Moon
Length of Visible Light
Length of Day
Tomorrow will be .
, % of the Moon is Illuminated

Today's Extremes

State Highs State Lows

Community

WunderPhotos

Upload Photos

1,835,323 photos uploaded!

WunderBlogs® & News

Nearby

Air Quality

  Air Quality AQ Index Pollutant
Not available.

Snow Depth

Station Depth Elevation

Earthquake Activity

City Distance Mag. Time & Date
Minimum magnitude displayed is 2.5.

Coastal Water Temperatures

Place Temperature

Stations

Nearby Weather Stations

Station Location Temp. Windchill Dew Point Humidity Wind Precip. Elev Updated Type
                   
Flood Advisory
Statement as of 8:42 AM CDT on July 05, 2015

The Flood Advisory continues for
the Arkansas River at Ozark lock and dam
* until this evening, or until the advisory is cancelled.
* At 8:00 am Sunday, the stage was 355.6 feet.
* Action stage is 355.5 feet.
* Flood stage is 357.0 feet.
* Forecast... the river will fall below action stage early
this evening.


Lat... Lon 3546 9405 3550 9382 3542 9347 3536 9349
      3531 9371 3540 9385